createdAt,value
2019-03-19T00:02:15.590Z,3.43
2019-03-19T00:04:44.030Z,3.50
2019-03-19T00:07:12.787Z,3.00
2019-03-19T00:09:41.217Z,3.23
2019-03-19T00:12:09.723Z,3.50
2019-03-19T00:14:38.206Z,2.93
2019-03-19T00:17:06.710Z,3.27
2019-03-19T00:19:35.187Z,3.93
2019-03-19T00:22:03.679Z,3.53
2019-03-19T00:24:32.110Z,3.77
2019-03-19T00:27:00.615Z,3.10
2019-03-19T00:29:29.008Z,3.37
2019-03-19T00:31:57.508Z,3.87
2019-03-19T00:34:25.976Z,3.37
2019-03-19T00:36:54.779Z,3.23
2019-03-19T00:39:23.191Z,3.60
2019-03-19T00:41:51.603Z,3.30
2019-03-19T00:44:20.090Z,3.77
2019-03-19T00:46:48.567Z,3.87
2019-03-19T00:49:16.978Z,3.70
2019-03-19T00:51:45.462Z,3.47
2019-03-19T00:54:13.871Z,3.67
2019-03-19T00:56:42.282Z,3.20
2019-03-19T00:59:10.694Z,3.30
2019-03-19T01:01:39.390Z,3.30
2019-03-19T01:04:07.928Z,3.47
2019-03-19T01:06:36.547Z,3.83
2019-03-19T01:09:06.480Z,4.10
2019-03-19T01:11:35.247Z,4.90
2019-03-19T01:14:03.662Z,3.20
2019-03-19T01:16:32.187Z,3.70
2019-03-19T01:19:00.587Z,3.70
2019-03-19T01:21:29.079Z,3.13
2019-03-19T01:23:57.527Z,3.63
2019-03-19T01:26:25.943Z,3.50
2019-03-19T01:28:54.355Z,4.00
2019-03-19T01:31:22.773Z,2.87
2019-03-19T01:33:51.591Z,3.23
2019-03-19T01:36:19.975Z,4.10
2019-03-19T01:38:48.447Z,3.80
2019-03-19T01:41:16.915Z,3.60
2019-03-19T01:43:45.422Z,4.23
2019-03-19T01:46:13.916Z,3.50
2019-03-19T01:48:42.336Z,3.17
2019-03-19T01:51:11.155Z,3.50
2019-03-19T01:53:39.543Z,3.40
2019-03-19T01:56:07.965Z,3.27
2019-03-19T01:58:36.396Z,3.40
2019-03-19T02:01:04.888Z,3.60
2019-03-19T02:03:33.379Z,3.60
2019-03-19T02:06:01.840Z,3.30
2019-03-19T02:08:30.249Z,3.00
2019-03-19T02:10:59.000Z,4.23
2019-03-19T02:13:27.888Z,4.13
2019-03-19T02:15:56.368Z,3.40
2019-03-19T02:18:24.760Z,3.97
2019-03-19T02:20:53.393Z,3.47
2019-03-19T02:23:21.853Z,3.47
2019-03-19T02:25:50.257Z,4.27
2019-03-19T02:28:18.736Z,3.20
2019-03-19T02:30:47.661Z,3.70
2019-03-19T02:33:16.066Z,3.90
2019-03-19T02:35:45.914Z,3.40
2019-03-19T02:38:14.421Z,3.47
2019-03-19T02:40:42.851Z,3.63
2019-03-19T02:43:11.262Z,4.10
2019-03-19T02:45:39.674Z,3.60
2019-03-19T02:48:08.168Z,3.63
2019-03-19T02:50:36.659Z,3.30
2019-03-19T02:53:05.163Z,3.90
2019-03-19T02:55:33.566Z,3.30
2019-03-19T02:58:02.063Z,3.90
2019-03-19T03:00:30.572Z,3.53
2019-03-19T03:02:58.980Z,3.67
2019-03-19T03:05:27.823Z,3.90
2019-03-19T03:07:56.303Z,3.63
2019-03-19T03:10:24.742Z,3.83
2019-03-19T03:12:53.217Z,4.10
2019-03-19T03:15:21.706Z,3.40
2019-03-19T03:17:50.186Z,3.70
2019-03-19T03:20:18.731Z,3.93
2019-03-19T03:22:47.539Z,2.87
2019-03-19T03:25:16.079Z,3.30
2019-03-19T03:27:44.555Z,3.50
2019-03-19T03:30:13.119Z,3.67
2019-03-19T03:32:41.667Z,3.43
2019-03-19T03:35:10.205Z,3.87
2019-03-19T03:37:38.751Z,3.53
2019-03-19T03:40:08.395Z,3.43
2019-03-19T03:42:36.889Z,3.47
2019-03-19T03:45:05.860Z,2.97
2019-03-19T03:47:34.356Z,3.70
2019-03-19T03:50:02.865Z,3.30
2019-03-19T03:52:31.293Z,7.73
2019-03-19T03:54:59.773Z,5.80
2019-03-19T03:57:28.210Z,5.77
2019-03-19T03:59:56.603Z,6.47
2019-03-19T04:02:25.008Z,6.37
2019-03-19T04:04:53.491Z,5.93
2019-03-19T04:07:22.007Z,5.93
2019-03-19T04:09:50.391Z,5.17
2019-03-19T04:12:18.835Z,5.07
2019-03-19T04:14:47.252Z,8.40
2019-03-19T04:17:16.008Z,5.87
2019-03-19T04:19:45.017Z,6.60
2019-03-19T04:22:15.967Z,7.37
2019-03-19T04:24:43.684Z,5.90
2019-03-19T04:27:16.345Z,4.70
2019-03-19T04:29:42.325Z,4.47
2019-03-19T04:32:10.744Z,4.43
2019-03-19T04:34:39.227Z,4.63
2019-03-19T04:37:07.672Z,5.03
2019-03-19T04:39:36.129Z,4.07
2019-03-19T04:42:04.617Z,4.40
2019-03-19T04:44:33.136Z,4.37
2019-03-19T04:47:01.557Z,3.97
2019-03-19T04:49:30.084Z,4.27
2019-03-19T04:51:58.487Z,4.13
2019-03-19T04:54:26.992Z,4.40
2019-03-19T04:56:55.400Z,3.70
2019-03-19T04:59:23.904Z,4.10
2019-03-19T05:01:52.364Z,4.17
2019-03-19T05:04:20.852Z,4.03
2019-03-19T05:06:49.344Z,4.03
2019-03-19T05:09:17.821Z,3.77
2019-03-19T05:11:46.304Z,3.93
2019-03-19T05:14:15.243Z,3.20
2019-03-19T05:16:43.642Z,3.77
2019-03-19T05:19:12.052Z,5.80
2019-03-19T05:21:40.453Z,3.33
2019-03-19T05:24:08.920Z,4.13
2019-03-19T05:26:37.329Z,4.60
2019-03-19T05:29:06.068Z,4.00
2019-03-19T05:31:34.860Z,4.03
2019-03-19T05:34:03.257Z,4.17
2019-03-19T05:36:31.678Z,4.27
2019-03-19T05:39:00.157Z,3.97
2019-03-19T05:41:28.601Z,3.67
2019-03-19T05:43:57.101Z,4.53
2019-03-19T05:46:25.594Z,4.57
2019-03-19T05:48:54.297Z,4.53
2019-03-19T05:51:22.709Z,4.50
2019-03-19T05:53:51.153Z,4.07
2019-03-19T05:56:19.582Z,5.17
2019-03-19T05:58:48.069Z,3.53
2019-03-19T06:01:16.562Z,4.30
2019-03-19T06:03:45.089Z,4.73
2019-03-19T06:06:13.575Z,4.50
2019-03-19T06:08:42.002Z,4.97
2019-03-19T06:11:10.419Z,5.27
2019-03-19T06:13:38.890Z,6.53
2019-03-19T06:16:09.680Z,7.47
2019-03-19T06:18:37.511Z,8.37
2019-03-19T06:21:07.026Z,5.70
2019-03-19T06:23:35.414Z,5.30
2019-03-19T06:26:03.928Z,4.97
2019-03-19T06:28:32.337Z,4.30
2019-03-19T06:31:00.754Z,3.47
2019-03-19T06:33:29.326Z,5.13
2019-03-19T06:35:57.818Z,4.43
2019-03-19T06:38:26.231Z,4.30
2019-03-19T06:40:54.642Z,5.13
2019-03-19T06:43:23.122Z,5.23
2019-03-19T06:45:51.870Z,4.80
2019-03-19T06:48:20.274Z,5.50
2019-03-19T06:50:51.555Z,5.20
2019-03-19T06:53:19.963Z,5.40
2019-03-19T06:55:48.683Z,5.07
2019-03-19T06:58:17.191Z,4.60
2019-03-19T07:00:45.583Z,4.90
2019-03-19T07:03:14.151Z,4.80
2019-03-19T07:05:42.663Z,5.30
2019-03-19T07:08:11.143Z,4.43
2019-03-19T07:10:39.647Z,4.87
2019-03-19T07:13:08.133Z,5.60
2019-03-19T07:15:36.547Z,5.70
2019-03-19T07:18:05.124Z,5.13
2019-03-19T07:20:33.778Z,5.40
2019-03-19T07:23:02.192Z,4.93
2019-03-19T07:25:30.599Z,5.33
2019-03-19T07:27:59.015Z,5.20
2019-03-19T07:30:27.537Z,4.67
2019-03-19T07:32:56.007Z,4.10
2019-03-19T07:35:24.597Z,4.43
2019-03-19T07:37:53.200Z,5.17
2019-03-19T07:40:21.665Z,5.13
2019-03-19T07:42:50.139Z,5.53
2019-03-19T07:45:18.570Z,4.43
2019-03-19T07:47:47.048Z,4.53
2019-03-19T07:50:15.635Z,5.03
2019-03-19T07:52:44.101Z,4.17
2019-03-19T07:55:12.580Z,4.00
2019-03-19T07:57:41.316Z,5.43
2019-03-19T08:00:10.565Z,4.87
2019-03-19T08:02:39.104Z,4.47
2019-03-19T08:05:07.940Z,4.57
2019-03-19T08:07:36.436Z,4.37
2019-03-19T08:10:05.183Z,6.60
2019-03-19T08:12:33.794Z,4.67
2019-03-19T08:15:02.360Z,4.93
2019-03-19T08:17:30.797Z,4.73
2019-03-19T08:19:59.189Z,4.30
2019-03-19T08:22:27.696Z,5.00
2019-03-19T08:24:56.100Z,4.10
2019-03-19T08:27:24.608Z,4.93
2019-03-19T08:29:53.004Z,4.30
2019-03-19T08:32:21.424Z,3.43
2019-03-19T08:34:49.856Z,4.07
2019-03-19T08:37:18.256Z,4.40
2019-03-19T08:39:46.664Z,4.50
2019-03-19T08:42:15.725Z,3.57
2019-03-19T08:44:44.534Z,4.10
2019-03-19T08:47:13.441Z,4.07
2019-03-19T08:49:42.458Z,4.50
2019-03-19T08:52:11.428Z,3.73
2019-03-19T08:54:40.405Z,3.30
2019-03-19T08:57:09.281Z,4.60
2019-03-19T08:59:38.405Z,4.20
2019-03-19T09:02:07.729Z,4.23
2019-03-19T09:04:36.769Z,4.07
2019-03-19T09:07:05.721Z,3.37
2019-03-19T09:09:34.614Z,3.47
2019-03-19T09:12:03.733Z,3.67
2019-03-19T09:14:32.632Z,3.47
2019-03-19T09:17:01.657Z,3.97
2019-03-19T09:19:30.698Z,3.17
2019-03-19T09:21:59.779Z,3.90
2019-03-19T09:24:28.765Z,3.93
2019-03-19T09:26:57.721Z,3.27
2019-03-19T09:29:26.982Z,3.80
2019-03-19T09:31:55.990Z,2.97
2019-03-19T09:34:24.991Z,3.63
2019-03-19T09:36:57.616Z,3.10
2019-03-19T09:39:24.662Z,2.90
2019-03-19T09:41:53.731Z,2.97
2019-03-19T09:44:22.762Z,3.00
2019-03-19T09:46:51.726Z,2.63
2019-03-19T09:49:21.183Z,2.73
2019-03-19T09:51:50.408Z,2.77
2019-03-19T09:54:19.534Z,2.77
2019-03-19T09:56:48.063Z,2.77
2019-03-19T09:59:26.566Z,3.27
2019-03-19T10:01:46.661Z,2.87
2019-03-19T10:04:15.110Z,2.93
2019-03-19T10:06:43.656Z,2.67
2019-03-19T10:09:12.198Z,3.13
2019-03-19T10:11:40.701Z,2.90
2019-03-19T10:14:09.175Z,3.00
2019-03-19T10:16:37.675Z,2.63
2019-03-19T10:19:06.161Z,2.90
2019-03-19T10:21:34.626Z,3.63
2019-03-19T10:24:03.055Z,2.40
2019-03-19T10:26:31.460Z,2.50
2019-03-19T10:28:59.882Z,2.70
2019-03-19T10:31:28.858Z,2.30
2019-03-19T10:33:58.178Z,3.10
2019-03-19T10:36:27.162Z,2.80
2019-03-19T10:38:56.162Z,2.53
2019-03-19T10:41:25.051Z,2.50
2019-03-19T10:43:54.123Z,3.30
2019-03-19T10:46:23.095Z,3.30
2019-03-19T10:48:52.059Z,2.90
2019-03-19T10:51:21.043Z,3.07
2019-03-19T10:53:50.035Z,2.77
2019-03-19T10:56:18.935Z,2.90
2019-03-19T10:58:47.955Z,2.83
2019-03-19T11:01:16.923Z,2.53
2019-03-19T11:03:46.019Z,3.53
2019-03-19T11:06:15.099Z,2.10
2019-03-19T11:08:44.135Z,1.93
2019-03-19T11:11:13.235Z,2.50
2019-03-19T11:13:42.245Z,3.50
2019-03-19T11:16:11.260Z,2.40
2019-03-19T11:18:40.348Z,2.30
2019-03-19T11:21:09.388Z,2.43
2019-03-19T11:23:38.419Z,2.63
2019-03-19T11:26:07.607Z,2.50
2019-03-19T11:28:36.665Z,2.30
2019-03-19T11:31:05.710Z,2.83
2019-03-19T11:33:34.834Z,2.20
2019-03-19T11:36:04.033Z,2.27
2019-03-19T11:38:34.032Z,3.00
2019-03-19T11:41:03.115Z,3.30
2019-03-19T11:43:32.295Z,2.80
2019-03-19T11:46:01.331Z,2.70
2019-03-19T11:48:30.860Z,2.50
2019-03-19T11:50:59.859Z,2.50
2019-03-19T11:53:28.887Z,2.33
2019-03-19T11:55:57.867Z,2.53
2019-03-19T11:58:26.831Z,2.10
2019-03-19T12:00:58.779Z,2.40
2019-03-19T12:03:27.744Z,2.23
2019-03-19T12:05:57.143Z,2.03
2019-03-19T12:08:26.911Z,2.43
2019-03-19T12:10:55.400Z,2.30
2019-03-19T12:13:23.899Z,2.50
2019-03-19T12:15:53.079Z,2.63
2019-03-19T12:18:22.177Z,2.60
2019-03-19T12:20:51.160Z,2.33
2019-03-19T12:23:20.264Z,2.13
2019-03-19T12:25:49.472Z,1.87
2019-03-19T12:28:18.941Z,3.33
2019-03-19T12:30:47.988Z,2.60
2019-03-19T12:33:17.064Z,2.13
2019-03-19T12:35:46.020Z,2.87
2019-03-19T12:38:15.015Z,2.50
2019-03-19T12:40:43.952Z,2.30
2019-03-19T12:43:12.425Z,2.67
2019-03-19T12:45:40.917Z,3.03
2019-03-19T12:48:09.521Z,2.60
2019-03-19T12:50:37.960Z,2.93
2019-03-19T12:53:06.457Z,3.03
2019-03-19T12:55:35.044Z,2.57
2019-03-19T12:58:03.548Z,2.80
2019-03-19T13:00:34.567Z,2.87
2019-03-19T13:03:02.326Z,2.70
2019-03-19T13:05:30.816Z,2.50
2019-03-19T13:07:59.212Z,2.60
2019-03-19T13:10:27.669Z,3.10
2019-03-19T13:12:56.181Z,2.87
2019-03-19T13:15:24.601Z,2.70
2019-03-19T13:17:53.162Z,2.63
2019-03-19T13:20:21.741Z,2.80
2019-03-19T13:22:50.636Z,2.87
2019-03-19T13:25:19.146Z,2.90
2019-03-19T13:27:47.674Z,3.27
2019-03-19T13:30:16.939Z,3.23
2019-03-19T13:32:45.465Z,2.87
2019-03-19T13:35:14.185Z,2.63
2019-03-19T13:37:42.757Z,2.70
2019-03-19T13:40:12.193Z,2.50
2019-03-19T13:42:40.609Z,2.57
2019-03-19T13:45:09.248Z,2.50
2019-03-19T13:47:37.773Z,3.93
2019-03-19T13:50:06.369Z,3.17
2019-03-19T13:52:34.926Z,2.43
2019-03-19T13:55:04.130Z,2.50
2019-03-19T13:57:32.597Z,2.67
2019-03-19T14:00:01.291Z,2.47
2019-03-19T14:02:29.781Z,2.50
2019-03-19T14:04:58.762Z,2.70
2019-03-19T14:07:27.243Z,2.30
2019-03-19T14:09:55.754Z,2.70
2019-03-19T14:12:24.382Z,2.60
2019-03-19T14:14:52.783Z,2.50
2019-03-19T14:17:21.255Z,2.70
2019-03-19T14:19:51.284Z,2.37
2019-03-19T14:22:20.138Z,2.27
2019-03-19T14:24:48.734Z,2.90
2019-03-19T14:27:17.206Z,2.23
2019-03-19T14:29:45.654Z,2.83
2019-03-19T14:32:14.214Z,2.70
2019-03-19T14:34:42.623Z,2.70
2019-03-19T14:37:12.461Z,2.90
2019-03-19T14:39:41.114Z,3.13
2019-03-19T14:42:09.610Z,2.70
2019-03-19T14:44:38.150Z,2.87
2019-03-19T14:47:06.678Z,2.93
2019-03-19T14:49:46.076Z,2.40
2019-03-19T14:52:05.318Z,3.10
2019-03-19T14:54:34.178Z,2.77
2019-03-19T14:57:02.742Z,2.90
2019-03-19T14:59:31.150Z,2.87
2019-03-19T15:01:59.646Z,4.87
2019-03-19T15:04:28.162Z,13.50
2019-03-19T15:06:56.674Z,4.10
2019-03-19T15:09:25.182Z,3.40
2019-03-19T15:11:53.898Z,2.93
2019-03-19T15:14:23.075Z,3.13
2019-03-19T15:16:51.575Z,3.13
2019-03-19T15:19:20.071Z,3.10
2019-03-19T15:21:48.587Z,3.10
2019-03-19T15:24:17.076Z,3.37
2019-03-19T15:26:45.588Z,7.13
2019-03-19T15:29:14.107Z,3.23
2019-03-19T15:31:42.579Z,3.40
2019-03-19T15:34:11.070Z,2.97
2019-03-19T15:36:39.555Z,3.50
2019-03-19T15:39:08.459Z,3.33
2019-03-19T15:41:37.136Z,3.40
2019-03-19T15:44:05.615Z,3.33
2019-03-19T15:46:34.103Z,3.43
2019-03-19T15:49:02.599Z,3.13
2019-03-19T15:51:31.112Z,3.03
2019-03-19T15:53:59.507Z,3.30
2019-03-19T15:56:28.163Z,3.77
2019-03-19T15:58:56.573Z,3.20
2019-03-19T16:01:25.388Z,3.60
2019-03-19T16:03:53.812Z,3.30
2019-03-19T16:06:22.324Z,3.20
2019-03-19T16:08:50.896Z,3.40
2019-03-19T16:11:19.392Z,3.13
2019-03-19T16:13:48.164Z,3.33
2019-03-19T16:16:17.393Z,3.83
2019-03-19T16:18:45.912Z,3.10
2019-03-19T16:21:14.422Z,3.50
2019-03-19T16:23:43.192Z,3.43
2019-03-19T16:26:11.672Z,3.90
2019-03-19T16:28:40.221Z,4.03
2019-03-19T16:31:08.708Z,3.50
2019-03-19T16:33:37.112Z,3.60
2019-03-19T16:36:05.556Z,4.13
2019-03-19T16:38:33.972Z,3.87
2019-03-19T16:41:02.428Z,3.60
2019-03-19T16:43:30.952Z,3.53
2019-03-19T16:45:59.417Z,3.57
2019-03-19T16:48:27.928Z,3.67
2019-03-19T16:50:56.455Z,4.50
2019-03-19T16:53:24.911Z,4.03
2019-03-19T16:55:53.669Z,4.10
2019-03-19T16:58:22.073Z,3.90
2019-03-19T17:00:50.593Z,3.30
2019-03-19T17:03:19.061Z,5.07
2019-03-19T17:05:47.457Z,4.00
2019-03-19T17:08:15.953Z,3.73
2019-03-19T17:10:44.473Z,4.43
2019-03-19T17:13:12.887Z,3.93
2019-03-19T17:15:41.377Z,4.30
2019-03-19T17:18:09.874Z,4.30
2019-03-19T17:20:38.413Z,4.33
2019-03-19T17:23:06.909Z,4.70
2019-03-19T17:25:35.731Z,4.43
2019-03-19T17:28:04.225Z,4.70
2019-03-19T17:30:32.687Z,5.90
2019-03-19T17:33:01.342Z,6.57
2019-03-19T17:35:29.838Z,6.57
2019-03-19T17:37:58.258Z,5.37
2019-03-19T17:40:26.681Z,5.80
2019-03-19T17:42:55.241Z,8.57
2019-03-19T17:45:23.773Z,8.87
2019-03-19T17:47:52.275Z,7.33
2019-03-19T17:50:20.920Z,6.30
2019-03-19T17:52:50.096Z,6.87
2019-03-19T17:55:18.997Z,5.50
2019-03-19T17:57:47.575Z,5.67
2019-03-19T18:00:20.054Z,6.80
2019-03-19T18:02:48.564Z,7.20
2019-03-19T18:05:17.037Z,7.10
2019-03-19T18:07:45.511Z,5.10
2019-03-19T18:10:14.365Z,6.83
2019-03-19T18:12:42.905Z,9.20
2019-03-19T18:15:11.502Z,9.13
2019-03-19T18:17:40.029Z,5.50
2019-03-19T18:20:08.597Z,4.80
2019-03-19T18:22:37.401Z,4.43
2019-03-19T18:25:05.901Z,5.70
2019-03-19T18:27:34.393Z,6.30
2019-03-19T18:30:03.225Z,5.80
2019-03-19T18:32:35.412Z,4.97
2019-03-19T18:35:03.342Z,5.77
2019-03-19T18:37:31.910Z,5.37
2019-03-19T18:40:00.311Z,5.67
2019-03-19T18:42:28.833Z,6.43
2019-03-19T18:44:57.286Z,7.50
2019-03-19T18:47:25.714Z,8.20
2019-03-19T18:49:54.134Z,7.70
2019-03-19T18:52:22.618Z,8.40
2019-03-19T18:54:51.070Z,7.20
2019-03-19T18:57:19.646Z,7.83
2019-03-19T18:59:48.074Z,8.07
2019-03-19T19:02:16.502Z,8.20
2019-03-19T19:04:45.086Z,7.73
2019-03-19T19:07:13.642Z,7.50
2019-03-19T19:09:42.058Z,18.50
2019-03-19T19:12:10.578Z,8.53
2019-03-19T19:14:39.046Z,7.80
2019-03-19T19:17:07.515Z,7.80
2019-03-19T19:19:35.918Z,8.03
2019-03-19T19:22:04.448Z,8.10
2019-03-19T19:24:32.950Z,8.70
2019-03-19T19:27:01.458Z,7.90
2019-03-19T19:29:30.286Z,9.17
2019-03-19T19:31:58.992Z,8.00
2019-03-19T19:34:27.862Z,7.67
2019-03-19T19:36:56.646Z,7.90
2019-03-19T19:39:25.187Z,8.10
2019-03-19T19:41:53.767Z,9.00
2019-03-19T19:44:22.175Z,9.90
2019-03-19T19:46:50.640Z,9.53
2019-03-19T19:49:19.056Z,9.47
2019-03-19T19:51:47.683Z,10.00
2019-03-19T19:54:16.304Z,12.20
2019-03-19T19:56:44.816Z,12.53
2019-03-19T19:59:13.763Z,11.20
2019-03-19T20:01:42.287Z,10.57
2019-03-19T20:04:10.790Z,11.97
2019-03-19T20:06:39.275Z,10.43
2019-03-19T20:09:07.866Z,10.23
2019-03-19T20:11:38.518Z,10.10
2019-03-19T20:14:06.783Z,10.07
2019-03-19T20:16:35.283Z,10.77
2019-03-19T20:19:03.767Z,15.43
2019-03-19T20:21:32.184Z,14.60
2019-03-19T20:24:00.659Z,12.83
2019-03-19T20:26:29.171Z,13.33
2019-03-19T20:28:57.647Z,12.63
2019-03-19T20:31:26.139Z,11.60
2019-03-19T20:33:54.559Z,10.83
2019-03-19T20:36:23.095Z,10.90
2019-03-19T20:38:51.564Z,10.23
2019-03-19T20:41:20.545Z,9.57
2019-03-19T20:43:48.968Z,9.70
2019-03-19T20:46:17.453Z,9.80
2019-03-19T20:48:45.896Z,8.80
2019-03-19T20:51:14.384Z,9.03
2019-03-19T20:53:42.841Z,9.43
2019-03-19T20:56:11.320Z,9.00
2019-03-19T20:58:43.690Z,9.67
2019-03-19T21:01:09.916Z,9.50
2019-03-19T21:03:38.333Z,10.10
2019-03-19T21:06:06.826Z,10.10
2019-03-19T21:08:35.254Z,10.63
2019-03-19T21:11:03.734Z,14.10
2019-03-19T21:13:32.134Z,14.60
2019-03-19T21:16:00.878Z,9.73
2019-03-19T21:18:29.302Z,10.30
2019-03-19T21:20:57.719Z,10.90
2019-03-19T21:23:26.218Z,12.57
2019-03-19T21:25:55.016Z,14.27
2019-03-19T21:28:23.465Z,12.33
2019-03-19T21:30:51.951Z,11.33
2019-03-19T21:33:20.431Z,11.13
2019-03-19T21:35:48.937Z,11.53
2019-03-19T21:38:17.347Z,11.30
2019-03-19T21:40:45.827Z,11.30
2019-03-19T21:43:14.323Z,10.53
2019-03-19T21:45:42.815Z,10.50
2019-03-19T21:48:11.299Z,10.33
2019-03-19T21:50:39.837Z,11.10
2019-03-19T21:53:08.327Z,9.70
2019-03-19T21:55:36.747Z,10.37
2019-03-19T21:58:05.255Z,10.97
2019-03-19T22:00:33.737Z,11.03
2019-03-19T22:03:02.245Z,11.00
2019-03-19T22:05:31.031Z,11.97
2019-03-19T22:07:59.454Z,11.10
2019-03-19T22:10:27.899Z,10.87
2019-03-19T22:12:56.664Z,11.97
2019-03-19T22:15:25.139Z,12.97
2019-03-19T22:17:54.032Z,12.13
2019-03-19T22:20:22.527Z,12.50
2019-03-19T22:22:51.015Z,11.80
2019-03-19T22:25:19.871Z,11.63
2019-03-19T22:27:48.326Z,11.43
2019-03-19T22:30:16.831Z,10.57
2019-03-19T22:32:45.343Z,11.00
2019-03-19T22:35:14.096Z,10.87
2019-03-19T22:37:43.512Z,10.70
2019-03-19T22:40:12.552Z,11.30
2019-03-19T22:42:41.067Z,12.37
2019-03-19T22:45:10.252Z,11.57
2019-03-19T22:47:38.740Z,12.60
2019-03-19T22:50:07.706Z,11.47
2019-03-19T22:52:36.131Z,11.57
2019-03-19T22:55:04.880Z,11.67
2019-03-19T22:57:33.294Z,10.83
2019-03-19T23:00:01.739Z,11.07
2019-03-19T23:02:30.296Z,11.10
2019-03-19T23:04:58.700Z,12.00
2019-03-19T23:07:27.120Z,12.20
2019-03-19T23:09:55.525Z,11.50
2019-03-19T23:12:24.032Z,11.73
2019-03-19T23:14:52.529Z,11.23
2019-03-19T23:17:21.023Z,10.83
2019-03-19T23:19:49.523Z,10.93
2019-03-19T23:22:18.006Z,10.30
2019-03-19T23:24:46.535Z,11.37
2019-03-19T23:27:15.007Z,11.37
2019-03-19T23:29:43.466Z,12.10
2019-03-19T23:32:11.951Z,11.70
2019-03-19T23:34:40.450Z,11.93
2019-03-19T23:37:08.999Z,12.03
2019-03-19T23:39:38.063Z,11.40
2019-03-19T23:42:06.572Z,11.40
2019-03-19T23:44:34.980Z,11.33
2019-03-19T23:47:03.955Z,11.80
2019-03-19T23:49:32.535Z,11.30
2019-03-19T23:52:01.044Z,11.33
2019-03-19T23:54:29.803Z,12.07
2019-03-19T23:56:58.291Z,11.93
2019-03-19T23:59:26.719Z,12.30
